createdAt,value
2022-08-12T00:00:05.397Z,25.24
2022-08-12T00:02:50.510Z,25.21
2022-08-12T00:05:38.307Z,25.17
2022-08-12T00:08:42.610Z,25.11
2022-08-12T00:11:29.582Z,25.08
2022-08-12T00:14:14.675Z,25.06
2022-08-12T00:17:01.241Z,25.02
2022-08-12T00:19:46.444Z,25.00
2022-08-12T00:22:31.887Z,24.96
2022-08-12T00:25:17.900Z,24.93
2022-08-12T00:28:05.383Z,24.89
2022-08-12T00:30:51.079Z,24.87
2022-08-12T00:33:51.630Z,24.86
2022-08-12T00:36:43.269Z,24.85
2022-08-12T00:39:30.334Z,24.85
2022-08-12T00:42:12.781Z,24.82
2022-08-12T00:44:44.889Z,24.80
2022-08-12T00:47:25.143Z,24.77
2022-08-12T00:49:55.157Z,24.74
2022-08-12T00:52:24.103Z,24.71
2022-08-12T00:54:53.761Z,24.68
2022-08-12T00:57:23.061Z,24.64
2022-08-12T00:59:54.210Z,24.52
2022-08-12T01:02:27.747Z,24.58
2022-08-12T01:05:14.626Z,24.52
2022-08-12T01:08:00.713Z,24.48
2022-08-12T01:10:47.442Z,24.43
2022-08-12T01:13:19.442Z,24.33
2022-08-12T01:15:51.323Z,24.35
2022-08-12T01:18:20.616Z,24.32
2022-08-12T01:20:51.344Z,24.23
2022-08-12T01:23:36.606Z,24.21
2022-08-12T01:26:07.807Z,24.25
2022-08-12T01:28:36.970Z,24.22
2022-08-12T01:31:06.434Z,24.14
2022-08-12T01:33:39.028Z,24.20
2022-08-12T01:36:10.826Z,24.19
2022-08-12T01:38:39.454Z,24.09
2022-08-12T01:41:10.101Z,24.16
2022-08-12T01:43:38.690Z,24.14
2022-08-12T01:46:09.738Z,24.12
2022-08-12T01:48:51.378Z,24.06
2022-08-12T01:52:12.649Z,23.99
2022-08-12T01:54:17.374Z,23.99
2022-08-12T01:56:51.872Z,23.96
2022-08-12T01:59:45.540Z,23.91
2022-08-12T02:02:17.204Z,23.90
2022-08-12T02:05:24.802Z,23.88
2022-08-12T02:08:21.086Z,23.83
2022-08-12T02:11:14.491Z,23.82
2022-08-12T02:14:12.714Z,23.80
2022-08-12T02:16:54.884Z,23.66
2022-08-12T02:19:35.742Z,23.65
2022-08-12T02:22:14.817Z,23.73
2022-08-12T02:24:43.751Z,23.72
2022-08-12T02:27:13.986Z,23.61
2022-08-12T02:29:43.221Z,23.67
2022-08-12T02:32:11.430Z,23.66
2022-08-12T02:34:39.142Z,23.67
2022-08-12T02:37:09.693Z,23.66
2022-08-12T02:39:38.496Z,23.66
2022-08-12T02:42:07.837Z,23.65
2022-08-12T02:44:40.183Z,23.63
2022-08-12T02:47:57.142Z,23.62
2022-08-12T02:49:59.478Z,23.56
2022-08-12T02:52:27.992Z,23.60
2022-08-12T02:55:01.482Z,23.58
2022-08-12T02:57:29.629Z,23.57
2022-08-12T02:59:57.461Z,23.54
2022-08-12T03:02:28.750Z,23.53
2022-08-12T03:04:58.366Z,23.52
2022-08-12T03:07:56.114Z,23.48
2022-08-12T03:10:36.552Z,23.48
2022-08-12T03:13:08.188Z,23.45
2022-08-12T03:15:36.561Z,23.42
2022-08-12T03:18:25.725Z,23.35
2022-08-12T03:20:56.256Z,23.35
2022-08-12T03:23:29.625Z,23.34
2022-08-12T03:26:00.622Z,23.28
2022-08-12T03:28:50.317Z,23.22
2022-08-12T03:31:19.564Z,23.19
2022-08-12T03:34:02.310Z,23.10
2022-08-12T03:36:31.809Z,23.09
2022-08-12T03:39:23.561Z,23.04
2022-08-12T03:42:12.284Z,22.99
2022-08-12T03:45:00.740Z,22.96
2022-08-12T03:47:49.833Z,22.87
2022-08-12T03:50:37.004Z,22.86
2022-08-12T03:53:24.220Z,22.84
2022-08-12T03:56:09.319Z,22.77
2022-08-12T03:58:55.566Z,22.77
2022-08-12T04:01:23.458Z,22.75
2022-08-12T04:03:54.605Z,22.76
2022-08-12T04:06:35.316Z,22.75
2022-08-12T04:09:14.591Z,22.74
2022-08-12T04:12:03.021Z,22.72
2022-08-12T04:14:30.882Z,22.68
2022-08-12T04:16:59.090Z,22.66
2022-08-12T04:19:27.207Z,22.63
2022-08-12T04:22:01.639Z,22.61
2022-08-12T04:24:31.430Z,22.62
2022-08-12T04:26:59.224Z,22.61
2022-08-12T04:30:31.214Z,22.61
2022-08-12T04:32:15.739Z,22.61
2022-08-12T04:34:44.511Z,22.58
2022-08-12T04:37:16.033Z,22.55
2022-08-12T04:39:45.901Z,22.47
2022-08-12T04:42:13.772Z,22.52
2022-08-12T04:44:42.494Z,22.56
2022-08-12T04:47:12.218Z,22.56
2022-08-12T04:49:41.052Z,22.55
2022-08-12T04:52:09.007Z,22.54
2022-08-12T04:54:38.174Z,22.55
2022-08-12T04:57:09.351Z,22.54
2022-08-12T04:59:47.562Z,22.54
2022-08-12T05:02:21.270Z,22.55
2022-08-12T05:04:51.455Z,22.56
2022-08-12T05:07:19.639Z,22.55
2022-08-12T05:09:59.023Z,22.54
2022-08-12T05:12:31.483Z,22.55
2022-08-12T05:14:59.250Z,22.57
2022-08-12T05:17:28.043Z,22.58
2022-08-12T05:19:57.070Z,22.60
2022-08-12T05:22:26.302Z,22.62
2022-08-12T05:24:55.597Z,22.64
2022-08-12T05:27:23.752Z,22.66
2022-08-12T05:30:07.007Z,22.67
2022-08-12T05:32:37.592Z,22.69
2022-08-12T05:35:08.156Z,22.72
2022-08-12T05:37:36.448Z,22.73
2022-08-12T05:40:10.983Z,22.71
2022-08-12T05:42:39.627Z,22.78
2022-08-12T05:45:08.658Z,22.78
2022-08-12T05:47:44.839Z,22.81
2022-08-12T05:50:21.263Z,22.83
2022-08-12T05:52:48.976Z,22.85
2022-08-12T05:55:18.148Z,22.88
2022-08-12T05:57:48.998Z,22.89
2022-08-12T06:00:18.391Z,22.91
2022-08-12T06:02:46.620Z,22.91
2022-08-12T06:05:14.456Z,22.91
2022-08-12T06:08:01.738Z,22.93
2022-08-12T06:10:33.176Z,22.98
2022-08-12T06:13:02.529Z,23.02
2022-08-12T06:15:31.219Z,23.03
2022-08-12T06:18:13.837Z,22.99
2022-08-12T06:20:44.801Z,23.02
2022-08-12T06:23:12.900Z,23.01
2022-08-12T06:25:42.193Z,23.06
2022-08-12T06:28:17.211Z,23.12
2022-08-12T06:31:08.185Z,23.18
2022-08-12T06:33:57.870Z,23.23
2022-08-12T06:36:24.992Z,23.26
2022-08-12T06:38:57.999Z,23.33
2022-08-12T06:42:30.566Z,23.37
2022-08-12T06:44:32.739Z,23.44
2022-08-12T06:47:00.597Z,23.49
2022-08-12T06:49:36.358Z,23.54
2022-08-12T06:52:04.891Z,23.61
2022-08-12T06:54:33.262Z,23.67
2022-08-12T06:57:04.851Z,23.73
2022-08-12T06:59:35.529Z,23.77
2022-08-12T07:02:03.268Z,23.82
2022-08-12T07:04:39.226Z,23.85
2022-08-12T07:07:08.657Z,23.92
2022-08-12T07:10:06.907Z,23.99
2022-08-12T07:12:27.960Z,24.02
2022-08-12T07:14:56.503Z,24.09
2022-08-12T07:17:24.222Z,24.16
2022-08-12T07:19:53.566Z,24.18
2022-08-12T07:22:23.271Z,24.23
2022-08-12T07:25:11.412Z,24.30
2022-08-12T07:27:42.271Z,24.36
2022-08-12T07:30:11.337Z,24.40
2022-08-12T07:32:40.180Z,24.46
2022-08-12T07:35:08.727Z,24.52
2022-08-12T07:37:41.639Z,24.57
2022-08-12T07:40:11.590Z,24.61
2022-08-12T07:44:27.903Z,24.69
2022-08-12T07:46:55.549Z,24.76
2022-08-12T07:49:24.755Z,24.82
2022-08-12T07:51:52.442Z,24.89
2022-08-12T07:54:20.044Z,24.95
2022-08-12T07:56:47.748Z,25.02
2022-08-12T07:59:15.513Z,25.09
2022-08-12T08:01:44.620Z,25.23
2022-08-12T08:04:35.298Z,25.24
2022-08-12T08:07:03.346Z,25.29
2022-08-12T08:09:31.837Z,25.34
2022-08-12T08:12:18.639Z,25.44
2022-08-12T08:14:49.959Z,25.54
2022-08-12T08:17:19.850Z,25.65
2022-08-12T08:20:03.324Z,25.75
2022-08-12T08:22:41.435Z,25.84
2022-08-12T08:25:34.826Z,25.94
2022-08-12T08:28:02.862Z,26.03
2022-08-12T08:30:31.921Z,26.10
2022-08-12T08:33:01.225Z,26.14
2022-08-12T08:35:46.241Z,26.20
2022-08-12T08:38:31.898Z,26.24
2022-08-12T08:42:16.660Z,26.31
2022-08-12T08:44:10.625Z,26.42
2022-08-12T08:46:38.640Z,26.56
2022-08-12T08:49:08.549Z,26.65
2022-08-12T08:51:36.976Z,26.67
2022-08-12T08:54:06.699Z,26.67
2022-08-12T08:56:34.648Z,26.73
2022-08-12T08:59:02.451Z,26.80
2022-08-12T09:01:37.751Z,26.81
2022-08-12T09:05:12.658Z,26.84
2022-08-12T09:07:17.852Z,26.81
2022-08-12T09:13:06.305Z,26.81
2022-08-12T09:15:36.332Z,26.87
2022-08-12T09:18:08.773Z,27.03
2022-08-12T09:20:39.434Z,27.19
2022-08-12T09:23:58.837Z,27.33
2022-08-12T09:26:03.837Z,27.35
2022-08-12T09:28:33.029Z,27.43
2022-08-12T09:31:01.230Z,27.46
2022-08-12T09:34:28.894Z,27.60
2022-08-12T09:36:31.102Z,27.71
2022-08-12T09:40:04.295Z,27.81
2022-08-12T09:42:38.908Z,27.94
2022-08-12T09:45:22.816Z,28.07
2022-08-12T09:47:59.627Z,28.24
2022-08-12T09:50:28.574Z,28.34
2022-08-12T09:53:15.693Z,28.39
2022-08-12T09:55:57.336Z,28.39
2022-08-12T09:58:57.818Z,28.46
2022-08-12T10:01:23.418Z,28.57
2022-08-12T10:04:04.230Z,28.68
2022-08-12T10:06:36.751Z,28.78
2022-08-12T10:09:21.738Z,28.84
2022-08-12T10:12:12.270Z,28.93
2022-08-12T10:14:49.960Z,29.03
2022-08-12T10:17:22.801Z,29.05
2022-08-12T10:19:52.847Z,29.05
2022-08-12T10:22:38.852Z,29.07
2022-08-12T10:26:18.233Z,29.21
2022-08-12T10:28:35.119Z,29.27
2022-08-12T10:31:05.091Z,29.32
2022-08-12T10:33:33.547Z,29.40
2022-08-12T10:36:12.393Z,29.49
2022-08-12T10:38:41.516Z,29.55
2022-08-12T10:41:56.940Z,29.66
2022-08-12T10:44:18.524Z,29.84
2022-08-12T10:46:49.412Z,29.95
2022-08-12T10:50:02.464Z,30.03
2022-08-12T10:52:34.335Z,30.13
2022-08-12T10:54:55.961Z,30.20
2022-08-12T10:58:15.041Z,30.16
2022-08-12T11:00:34.808Z,30.03
2022-08-12T11:04:31.666Z,29.86
2022-08-12T11:07:07.348Z,29.76
2022-08-12T11:08:43.047Z,29.78
2022-08-12T11:11:17.814Z,29.90
2022-08-12T11:14:34.066Z,29.98
2022-08-12T11:17:06.437Z,29.91
2022-08-12T11:19:45.978Z,30.07
2022-08-12T11:22:13.872Z,30.20
2022-08-12T11:24:42.026Z,30.37
2022-08-12T11:27:18.926Z,30.49
2022-08-12T11:30:01.761Z,30.59
2022-08-12T11:34:53.757Z,30.50
2022-08-12T11:37:26.085Z,30.42
2022-08-12T11:42:34.771Z,30.39
2022-08-12T11:45:03.500Z,30.38
2022-08-12T11:47:32.840Z,30.54
2022-08-12T11:50:01.942Z,30.69
2022-08-12T11:52:55.457Z,30.85
2022-08-12T11:55:17.882Z,30.86
2022-08-12T11:58:07.613Z,30.86
2022-08-12T12:03:43.691Z,31.15
2022-08-12T12:06:16.365Z,31.24
2022-08-12T12:08:50.370Z,31.33
2022-08-12T12:11:19.226Z,31.38
2022-08-12T12:14:08.323Z,31.42
2022-08-12T12:16:38.209Z,31.51
2022-08-12T12:19:08.836Z,31.59
2022-08-12T12:21:48.740Z,31.73
2022-08-12T12:24:21.176Z,31.74
2022-08-12T12:27:00.781Z,31.74
2022-08-12T12:30:19.552Z,31.74
2022-08-12T12:32:18.587Z,31.75
2022-08-12T12:35:13.917Z,31.78
2022-08-12T12:38:04.269Z,31.81
2022-08-12T12:40:29.813Z,31.75
2022-08-12T12:43:43.357Z,31.73
2022-08-12T12:47:58.219Z,31.95
2022-08-12T12:50:35.201Z,31.95
2022-08-12T12:55:26.535Z,32.08
2022-08-12T12:59:33.779Z,32.18
2022-08-12T13:02:12.656Z,32.32
2022-08-12T13:04:40.742Z,32.30
2022-08-12T13:07:09.144Z,32.21
2022-08-12T13:09:37.172Z,32.31
2022-08-12T13:12:08.837Z,32.34
2022-08-12T13:14:39.683Z,32.29
2022-08-12T13:17:09.580Z,32.20
2022-08-12T13:19:43.438Z,32.00
2022-08-12T13:22:18.542Z,32.02
2022-08-12T13:24:54.650Z,32.05
2022-08-12T13:27:28.321Z,31.97
2022-08-12T13:30:11.335Z,31.92
2022-08-12T13:32:40.775Z,31.90
2022-08-12T13:35:19.661Z,31.98
2022-08-12T13:37:54.717Z,32.14
2022-08-12T13:40:24.805Z,32.29
2022-08-12T13:42:57.477Z,32.30
2022-08-12T13:45:27.134Z,32.26
2022-08-12T13:47:58.397Z,32.16
2022-08-12T13:50:32.540Z,32.26
2022-08-12T13:53:22.996Z,32.38
2022-08-12T13:56:02.006Z,32.48
2022-08-12T13:58:32.922Z,32.56
2022-08-12T14:01:06.159Z,32.62
2022-08-12T14:03:50.188Z,32.67
2022-08-12T14:06:19.846Z,32.78
2022-08-12T14:08:49.878Z,32.86
2022-08-12T14:11:19.286Z,32.98
2022-08-12T14:14:03.855Z,33.02
2022-08-12T14:16:49.035Z,33.08
2022-08-12T14:19:25.016Z,33.01
2022-08-12T14:22:00.756Z,32.97
2022-08-12T14:24:35.309Z,33.00
2022-08-12T14:27:03.211Z,33.04
2022-08-12T14:29:38.186Z,32.98
2022-08-12T14:32:20.553Z,32.84
2022-08-12T14:34:51.716Z,32.83
2022-08-12T14:37:56.782Z,32.85
2022-08-12T14:40:09.341Z,32.77
2022-08-12T14:42:37.022Z,32.84
2022-08-12T14:45:07.094Z,32.82
2022-08-12T14:47:36.219Z,32.76
2022-08-12T14:50:37.503Z,32.78
2022-08-12T14:54:49.942Z,32.81
2022-08-12T14:58:37.950Z,32.85
2022-08-12T15:01:46.055Z,32.77
2022-08-12T15:04:17.307Z,32.77
2022-08-12T15:06:52.726Z,32.75
2022-08-12T15:09:28.844Z,32.69
2022-08-12T15:12:03.334Z,32.76
2022-08-12T15:14:31.397Z,32.74
2022-08-12T15:17:00.717Z,32.74
2022-08-12T15:20:11.036Z,32.75
2022-08-12T15:22:37.103Z,32.77
2022-08-12T15:25:07.086Z,32.72
2022-08-12T15:28:04.259Z,32.68
2022-08-12T15:30:26.697Z,32.63
2022-08-12T15:32:58.305Z,32.56
2022-08-12T15:35:31.480Z,32.57
2022-08-12T15:38:11.984Z,32.56
2022-08-12T15:40:48.342Z,32.57
2022-08-12T15:43:35.555Z,32.62
2022-08-12T15:46:06.203Z,32.71
2022-08-12T15:48:34.006Z,32.77
2022-08-12T15:51:04.101Z,32.80
2022-08-12T15:53:54.697Z,32.80
2022-08-12T15:56:29.091Z,32.80
2022-08-12T15:58:59.169Z,32.79
2022-08-12T16:01:34.984Z,32.76
2022-08-12T16:04:05.141Z,32.73
2022-08-12T16:09:55.837Z,32.67
2022-08-12T16:12:12.332Z,32.65
2022-08-12T16:14:42.450Z,32.65
2022-08-12T16:17:15.668Z,32.66
2022-08-12T16:20:03.921Z,32.64
2022-08-12T16:22:32.575Z,32.61
2022-08-12T16:25:03.561Z,32.54
2022-08-12T16:27:38.632Z,32.52
2022-08-12T16:30:07.654Z,32.48
2022-08-12T16:32:36.746Z,32.45
2022-08-12T16:35:08.039Z,32.42
2022-08-12T16:38:24.401Z,32.38
2022-08-12T16:40:33.747Z,32.31
2022-08-12T16:43:04.670Z,32.26
2022-08-12T16:46:07.972Z,32.24
2022-08-12T16:48:34.757Z,32.20
2022-08-12T16:51:05.825Z,32.14
2022-08-12T16:53:44.654Z,32.12
2022-08-12T16:56:14.761Z,32.05
2022-08-12T16:58:43.402Z,32.02
2022-08-12T17:01:14.601Z,32.00
2022-08-12T17:03:52.084Z,31.96
2022-08-12T17:06:22.386Z,31.87
2022-08-12T17:09:03.568Z,31.87
2022-08-12T17:11:38.835Z,31.81
2022-08-12T17:14:07.502Z,31.81
2022-08-12T17:16:37.437Z,31.77
2022-08-12T17:19:09.249Z,31.73
2022-08-12T17:21:41.673Z,31.70
2022-08-12T17:24:30.460Z,31.66
2022-08-12T17:26:59.665Z,31.60
2022-08-12T17:30:00.284Z,31.53
2022-08-12T17:32:15.404Z,31.49
2022-08-12T17:35:15.269Z,31.46
2022-08-12T17:37:45.171Z,31.41
2022-08-12T17:40:34.651Z,31.35
2022-08-12T17:43:03.217Z,31.34
2022-08-12T17:45:52.638Z,31.27
2022-08-12T17:48:21.885Z,31.23
2022-08-12T17:50:51.746Z,31.22
2022-08-12T17:53:20.799Z,31.19
2022-08-12T17:55:51.024Z,31.17
2022-08-12T17:58:35.809Z,31.17
2022-08-12T18:01:11.093Z,31.12
2022-08-12T18:04:04.578Z,31.12
2022-08-12T18:06:28.604Z,31.08
2022-08-12T18:08:59.182Z,31.08
2022-08-12T18:12:04.615Z,31.00
2022-08-12T18:14:37.351Z,31.01
2022-08-12T18:17:08.688Z,30.98
2022-08-12T18:20:44.659Z,30.94
2022-08-12T18:23:12.710Z,30.88
2022-08-12T18:26:16.015Z,30.86
2022-08-12T18:28:48.254Z,30.81
2022-08-12T18:31:17.769Z,30.78
2022-08-12T18:33:46.889Z,30.69
2022-08-12T18:36:22.351Z,30.68
2022-08-12T18:38:56.055Z,30.63
2022-08-12T18:41:35.696Z,30.57
2022-08-12T18:44:09.602Z,30.49
2022-08-12T18:46:53.736Z,30.39
2022-08-12T18:49:29.634Z,30.34
2022-08-12T18:52:04.308Z,30.28
2022-08-12T18:54:34.857Z,30.24
2022-08-12T18:57:07.034Z,30.23
2022-08-12T19:00:01.890Z,30.19
2022-08-12T19:02:36.542Z,30.17
2022-08-12T19:05:10.591Z,30.14
2022-08-12T19:08:00.035Z,30.09
2022-08-12T19:10:29.831Z,30.05
2022-08-12T19:13:23.216Z,30.00
2022-08-12T19:15:53.252Z,29.94
2022-08-12T19:18:22.010Z,29.94
2022-08-12T19:20:50.657Z,29.88
2022-08-12T19:23:21.509Z,29.86
2022-08-12T19:25:59.669Z,29.82
2022-08-12T19:28:34.713Z,29.78
2022-08-12T19:31:55.762Z,29.72
2022-08-12T19:35:06.635Z,29.63
2022-08-12T19:37:22.908Z,29.59
2022-08-12T19:40:08.992Z,29.54
2022-08-12T19:42:57.648Z,29.47
2022-08-12T19:45:43.460Z,29.44
2022-08-12T19:48:19.266Z,29.38
2022-08-12T19:50:50.086Z,29.35
2022-08-12T19:53:22.945Z,29.28
2022-08-12T19:55:53.793Z,29.24
2022-08-12T19:58:22.929Z,29.19
2022-08-12T20:00:52.761Z,29.13
2022-08-12T20:03:38.033Z,29.06
2022-08-12T20:06:14.090Z,29.00
2022-08-12T20:08:48.761Z,28.93
2022-08-12T20:12:10.354Z,28.85
2022-08-12T20:14:14.135Z,28.77
2022-08-12T20:16:52.783Z,28.70
2022-08-12T20:19:53.226Z,28.65
2022-08-12T20:22:16.730Z,28.57
2022-08-12T20:24:55.317Z,28.51
2022-08-12T20:28:04.370Z,28.44
2022-08-12T20:30:20.601Z,28.40
2022-08-12T20:33:05.682Z,28.34
2022-08-12T20:36:06.178Z,28.25
2022-08-12T20:38:26.598Z,28.20
2022-08-12T20:40:55.635Z,28.15
2022-08-12T20:43:28.374Z,28.08
2022-08-12T20:45:59.990Z,28.02
2022-08-12T20:48:29.544Z,27.94
2022-08-12T20:50:57.605Z,27.87
2022-08-12T20:53:27.761Z,27.79
2022-08-12T20:56:19.545Z,27.71
2022-08-12T20:58:49.842Z,27.63
2022-08-12T21:01:23.857Z,27.61
2022-08-12T21:04:14.317Z,27.56
2022-08-12T21:07:04.545Z,27.49
2022-08-12T21:09:41.423Z,27.43
2022-08-12T21:12:27.982Z,27.40
2022-08-12T21:15:16.998Z,27.34
2022-08-12T21:18:00.923Z,27.29
2022-08-12T21:20:37.006Z,27.25
2022-08-12T21:23:06.204Z,27.17
2022-08-12T21:25:44.659Z,27.12
2022-08-12T21:28:13.173Z,27.06
2022-08-12T21:31:11.088Z,27.01
2022-08-12T21:33:31.363Z,26.99
2022-08-12T21:36:00.929Z,26.93
2022-08-12T21:38:34.455Z,26.88
2022-08-12T21:41:09.000Z,26.82
2022-08-12T21:43:45.286Z,26.76
2022-08-12T21:46:34.648Z,26.69
2022-08-12T21:49:05.456Z,26.67
2022-08-12T21:51:35.354Z,26.60
2022-08-12T21:54:21.908Z,26.54
2022-08-12T21:56:52.968Z,26.52
2022-08-12T21:59:22.041Z,26.45
2022-08-12T22:01:51.419Z,26.38
2022-08-12T22:04:36.922Z,26.36
2022-08-12T22:07:06.230Z,26.31
2022-08-12T22:09:43.339Z,26.27
2022-08-12T22:12:29.119Z,26.25
2022-08-12T22:14:56.798Z,26.22
2022-08-12T22:17:49.388Z,26.17
2022-08-12T22:20:22.074Z,26.12
2022-08-12T22:22:56.779Z,26.01
2022-08-12T22:25:27.816Z,26.04
2022-08-12T22:28:13.169Z,25.99
2022-08-12T22:30:59.018Z,26.01
2022-08-12T22:33:28.058Z,26.00
2022-08-12T22:35:59.539Z,25.99
2022-08-12T22:38:29.738Z,25.96
2022-08-12T22:41:00.738Z,25.92
2022-08-12T22:43:58.992Z,25.92
2022-08-12T22:46:59.297Z,25.91
2022-08-12T22:49:36.743Z,25.89
2022-08-12T22:52:18.319Z,25.83
2022-08-12T22:55:02.974Z,25.88
2022-08-12T22:57:53.395Z,25.78
2022-08-12T23:00:23.714Z,25.79
2022-08-12T23:03:00.864Z,25.75
2022-08-12T23:05:57.236Z,25.71
2022-08-12T23:08:29.979Z,25.69
2022-08-12T23:10:59.441Z,25.68
2022-08-12T23:13:45.027Z,25.64
2022-08-12T23:16:28.277Z,25.63
2022-08-12T23:19:01.857Z,25.62
2022-08-12T23:22:06.738Z,25.60
2022-08-12T23:24:30.586Z,25.55
2022-08-12T23:27:16.549Z,25.51
2022-08-12T23:30:05.924Z,25.44
2022-08-12T23:32:35.938Z,25.43
2022-08-12T23:35:06.603Z,25.41
2022-08-12T23:37:46.533Z,25.37
2022-08-12T23:40:22.527Z,25.33
2022-08-12T23:42:54.188Z,25.30
2022-08-12T23:45:31.682Z,25.26
2022-08-12T23:48:02.104Z,25.21
2022-08-12T23:50:34.200Z,25.16
2022-08-12T23:53:06.713Z,25.12
2022-08-12T23:55:45.680Z,25.07
2022-08-12T23:58:17.791Z,25.04
